Time;durP1;ratioP1;P1;durP2;ratioP2;P2;SDS_P1;SDS_P2;PMS_P1;PMS_P2;Temp;Humidity;BMP_temperature;BMP_pressure;BME280_temperature;BME280_humidity;BME280_pressure;Samples;Min_cycle;Max_cycle;Signal;HPM_P1;HPM_P2
2021/04/29 00:00:46;;;;;;;1999.90;999.90;;;;;;;14.48;83.36;-18293.69;4939246;29;20343;-34
2021/04/29 00:03:34;;;;;;;1999.90;999.90;;;;;;;14.29;84.03;-18288.50;4939286;29;20258;-35
2021/04/29 00:06:20;;;;;;;1999.90;999.90;;;;;;;14.22;85.52;-18286.75;4938970;29;20256;-33
2021/04/29 00:09:07;;;;;;;1999.90;999.90;;;;;;;14.24;84.97;-18287.16;4939269;29;20580;-32
2021/04/29 00:11:55;;;;;;;1999.90;999.90;;;;;;;14.31;84.29;-18289.03;4939219;29;20205;-35
2021/04/29 00:14:42;;;;;;;1999.90;999.90;;;;;;;14.20;83.66;-18286.09;4939133;29;20209;-35
2021/04/29 00:17:27;;;;;;;1999.90;999.90;;;;;;;14.21;83.51;-18286.50;4939384;29;20624;-32
2021/04/29 00:20:18;;;;;;;1999.90;999.90;;;;;;;14.17;83.57;-18285.44;4939015;29;20203;-32
2021/04/29 00:23:04;;;;;;;1999.90;999.90;;;;;;;14.04;84.22;-18282.09;4939252;29;20206;-34
2021/04/29 00:25:50;;;;;;;1999.90;999.90;;;;;;;14.05;83.16;-18282.38;4938984;29;20210;-35
2021/04/29 00:28:36;;;;;;;1999.90;999.90;;;;;;;14.00;83.61;-18281.03;4939043;29;20262;-36
2021/04/29 00:31:22;;;;;;;1999.90;999.90;;;;;;;13.93;83.83;-18279.16;4938470;29;20211;-34
2021/04/29 00:34:08;;;;;;;1999.90;999.90;;;;;;;13.97;83.25;-18280.25;4939146;29;20211;-36
2021/04/29 00:36:56;;;;;;;1999.90;999.90;;;;;;;14.20;83.08;-18286.09;4938987;29;20224;-36
2021/04/29 00:39:41;;;;;;;1999.90;999.90;;;;;;;13.90;84.41;-18278.38;4939115;29;20563;-35
2021/04/29 00:42:28;;;;;;;1999.90;999.90;;;;;;;13.88;84.95;-18277.69;4938910;29;20498;-35
2021/04/29 00:45:14;;;;;;;1999.90;999.90;;;;;;;13.84;84.84;-18276.63;4938873;29;20206;-35
2021/04/29 00:48:07;;;;;;;1999.90;999.90;;;;;;;14.39;82.27;-18291.16;4938843;29;20249;-38
2021/04/29 00:50:53;;;;;;;1999.90;999.90;;;;;;;14.62;81.61;-18297.31;4939173;29;20340;-36
2021/04/29 00:53:43;;;;;;;1999.90;999.90;;;;;;;14.41;81.92;-18291.69;4938820;29;20294;-33
2021/04/29 00:56:29;;;;;;;1999.90;999.90;;;;;;;14.04;83.64;-18281.97;4939079;29;20209;-33
2021/04/29 00:59:23;;;;;;;1999.90;999.90;;;;;;;13.97;84.81;-18280.25;4938641;29;20202;-37
2021/04/29 01:02:11;;;;;;;1999.90;999.90;;;;;;;13.87;86.22;-18277.56;4938973;29;20220;-34
2021/04/29 01:05:01;;;;;;;1999.90;999.90;;;;;;;13.80;87.05;-18275.84;4941092;29;20491;-35
2021/04/29 01:07:52;;;;;;;1999.90;999.90;;;;;;;13.92;87.37;-18278.91;4941940;29;20209;-36
2021/04/29 01:10:44;;;;;;;1999.90;999.90;;;;;;;14.11;87.24;-18283.97;4941943;29;20208;-36
2021/04/29 01:13:36;;;;;;;1999.90;999.90;;;;;;;14.25;84.54;-18287.44;4942139;29;20571;-34
2021/04/29 01:16:24;;;;;;;1999.90;999.90;;;;;;;14.26;84.14;-18287.69;4942081;29;20223;-33
2021/04/29 01:19:13;;;;;;;1999.90;999.90;;;;;;;14.20;84.33;-18286.09;4941915;29;20296;-35
2021/04/29 01:22:05;;;;;;;1999.90;999.90;;;;;;;14.09;85.26;-18283.44;4943601;29;20212;-36
2021/04/29 01:24:58;;;;;;;1999.90;999.90;;;;;;;14.01;87.06;-18281.31;4942522;29;20603;-33
2021/04/29 01:27:46;;;;;;;1999.90;999.90;;;;;;;13.77;89.65;-18274.91;4941941;29;20511;-34
2021/04/29 01:30:32;;;;;;;1999.90;999.90;;;;;;;13.59;92.81;-18270.22;4941999;29;20349;-36
2021/04/29 01:33:20;;;;;;;1999.90;999.90;;;;;;;13.77;91.06;-18274.91;4942195;29;20228;-37
2021/04/29 01:36:09;;;;;;;1999.90;999.90;;;;;;;13.48;93.83;-18267.31;4941379;29;20201;-37
2021/04/29 01:38:56;;;;;;;1999.90;999.90;;;;;;;13.38;95.02;-18264.63;4941621;29;20205;-36
2021/04/29 01:41:45;;;;;;;1999.90;999.90;;;;;;;13.39;94.26;-18265.03;4941510;29;20276;-37
2021/04/29 01:44:32;;;;;;;1999.90;999.90;;;;;;;13.86;91.59;-18277.16;4941660;29;20284;-35
2021/04/29 01:47:19;;;;;;;1999.90;999.90;;;;;;;13.94;90.26;-18279.31;4941031;29;20228;-36
2021/04/29 01:50:09;;;;;;;1999.90;999.90;;;;;;;13.68;91.75;-18272.50;4941386;29;20255;-33
2021/04/29 01:52:55;;;;;;;1999.90;999.90;;;;;;;13.63;91.66;-18271.16;4940827;29;20196;-38
2021/04/29 01:55:41;;;;;;;1999.90;999.90;;;;;;;13.34;95.39;-18263.56;4941310;29;20215;-37
2021/04/29 01:58:30;;;;;;;1999.90;999.90;;;;;;;13.39;94.89;-18264.91;4940997;29;20215;-33
2021/04/29 02:01:17;;;;;;;1999.90;999.90;;;;;;;13.43;93.66;-18266.09;4941425;29;20214;-37
2021/04/29 02:04:03;;;;;;;1999.90;999.90;;;;;;;13.49;93.02;-18267.44;4941303;29;20352;-33
2021/04/29 02:06:50;;;;;;;1999.90;999.90;;;;;;;13.55;93.46;-18269.16;4941410;29;20208;-38
2021/04/29 02:09:36;;;;;;;1999.90;999.90;;;;;;;13.61;93.16;-18270.78;4941348;29;20233;-37
2021/04/29 02:12:24;;;;;;;1999.90;999.90;;;;;;;13.53;94.57;-18268.50;4941637;29;20307;-37
2021/04/29 02:15:11;;;;;;;1999.90;999.90;;;;;;;13.50;94.83;-18267.69;4941025;29;20318;-37
2021/04/29 02:18:06;;;;;;;1999.90;999.90;;;;;;;13.21;97.73;-18260.09;4941333;29;20205;-35
2021/04/29 02:20:54;;;;;;;1999.90;999.90;;;;;;;13.07;99.26;-18256.63;4941330;29;20349;-36
2021/04/29 02:23:42;;;;;;;1999.90;999.90;;;;;;;13.27;98.94;-18261.84;4941089;29;20228;-34
2021/04/29 02:26:28;;;;;;;1999.90;999.90;;;;;;;13.18;99.54;-18259.31;4941107;29;20311;-34
2021/04/29 02:29:13;;;;;;;1999.90;999.90;;;;;;;13.35;98.60;-18263.84;4940965;29;20232;-34
2021/04/29 02:31:59;;;;;;;1999.90;999.90;;;;;;;13.13;100.00;-18257.97;4940693;29;20650;-35
2021/04/29 02:34:48;;;;;;;1999.90;999.90;;;;;;;13.36;100.00;-18264.09;4940860;29;20205;-36
2021/04/29 02:37:36;;;;;;;1999.90;999.90;;;;;;;13.29;99.87;-18262.22;4940914;29;20212;-35
2021/04/29 02:40:23;;;;;;;1999.90;999.90;;;;;;;13.27;100.00;-18261.84;4940320;29;20201;-33
2021/04/29 02:43:23;;;;;;;1999.90;999.90;;;;;;;13.19;100.00;-18259.56;4940565;29;20623;-36
2021/04/29 02:46:08;;;;;;;1999.90;999.90;;;;;;;13.00;100.00;-18254.75;4940424;29;20627;-37
2021/04/29 02:48:57;;;;;;;1999.90;999.90;;;;;;;13.02;100.00;-18255.16;4940807;29;20232;-33
2021/04/29 02:51:44;;;;;;;1999.90;999.90;;;;;;;13.06;100.00;-18256.22;4940493;29;20213;-34
2021/04/29 02:54:31;;;;;;;1999.90;999.90;;;;;;;13.15;100.00;-18258.63;4940479;29;20244;-34
2021/04/29 02:57:21;;;;;;;1999.90;999.90;;;;;;;13.36;100.00;-18264.25;4940387;29;20224;-34
2021/04/29 03:00:11;;;;;;;1999.90;999.90;;;;;;;13.08;100.00;-18256.75;4940461;29;20197;-32
2021/04/29 03:02:57;;;;;;;1999.90;999.90;;;;;;;13.10;100.00;-18257.44;4940115;29;20698;-34
2021/04/29 03:05:42;;;;;;;1999.90;999.90;;;;;;;13.05;100.00;-18256.09;4940085;29;20264;-37
2021/04/29 03:08:29;;;;;;;1999.90;999.90;;;;;;;13.36;100.00;-18264.09;4940304;29;20292;-34
2021/04/29 03:11:15;;;;;;;1999.90;999.90;;;;;;;13.17;100.00;-18259.16;4940177;29;20205;-34
2021/04/29 03:14:02;;;;;;;1999.90;999.90;;;;;;;13.13;100.00;-18258.09;4940388;29;20269;-35
2021/04/29 03:16:48;;;;;;;1999.90;999.90;;;;;;;13.23;100.00;-18260.63;4940247;29;20352;-37
2021/04/29 03:19:34;;;;;;;1999.90;999.90;;;;;;;13.08;100.00;-18256.75;4939914;29;20201;-33
2021/04/29 03:22:20;;;;;;;1999.90;999.90;;;;;;;13.09;100.00;-18257.03;4939930;29;20208;-37
2021/04/29 03:25:08;;;;;;;1999.90;999.90;;;;;;;13.17;100.00;-18259.16;4940019;29;20508;-36
2021/04/29 03:27:54;;;;;;;1999.90;999.90;;;;;;;13.02;100.00;-18255.16;4939720;29;20209;-35
2021/04/29 03:30:40;;;;;;;1999.90;999.90;;;;;;;13.38;100.00;-18264.78;4939595;29;20212;-34
2021/04/29 03:33:26;;;;;;;1999.90;999.90;;;;;;;13.26;100.00;-18261.56;4939978;29;20248;-35
2021/04/29 03:36:12;;;;;;;1999.90;999.90;;;;;;;13.31;100.00;-18262.78;4939968;29;20668;-35
2021/04/29 03:38:58;;;;;;;1999.90;999.90;;;;;;;13.30;100.00;-18262.50;4939788;29;20720;-35
2021/04/29 03:41:45;;;;;;;1999.90;999.90;;;;;;;12.92;100.00;-18252.50;4939705;29;20204;-36
2021/04/29 03:44:31;;;;;;;1999.90;999.90;;;;;;;12.85;100.00;-18250.75;4939685;29;20204;-36
2021/04/29 03:47:22;;;;;;;1999.90;999.90;;;;;;;12.90;100.00;-18251.97;4953543;29;20302;-37
2021/04/29 03:50:16;;;;;;;1999.90;999.90;;;;;;;12.99;100.00;-18254.34;4958807;29;20505;-37
2021/04/29 03:53:05;;;;;;;1999.90;999.90;;;;;;;12.84;100.00;-18250.34;4958708;29;20235;-33
2021/04/29 03:55:52;;;;;;;1999.90;999.90;;;;;;;12.68;100.00;-18246.34;4958886;29;20219;-35
2021/04/29 03:58:39;;;;;;;1999.90;999.90;;;;;;;12.60;100.00;-18244.22;4958484;29;20565;-34
2021/04/29 04:01:25;;;;;;;1999.90;999.90;;;;;;;12.92;100.00;-18252.50;4958868;29;20207;-34
2021/04/29 04:04:11;;;;;;;1999.90;999.90;;;;;;;12.96;100.00;-18253.69;4958620;29;20494;-34
2021/04/29 04:06:56;;;;;;;1999.90;999.90;;;;;;;12.89;100.00;-18251.69;4958339;29;20618;-37
2021/04/29 04:09:43;;;;;;;1999.90;999.90;;;;;;;12.96;100.00;-18253.56;4958744;29;20375;-34
2021/04/29 04:12:28;;;;;;;1999.90;999.90;;;;;;;13.09;100.00;-18257.03;4958795;29;20216;-35
2021/04/29 04:15:16;;;;;;;1999.90;999.90;;;;;;;13.11;100.00;-18257.69;4958064;29;20499;-35
2021/04/29 04:18:01;;;;;;;1999.90;999.90;;;;;;;13.04;100.00;-18255.81;4958498;29;20270;-38
2021/04/29 04:20:47;;;;;;;1999.90;999.90;;;;;;;12.88;100.00;-18251.56;4958864;29;20223;-32
2021/04/29 04:23:33;;;;;;;1999.90;999.90;;;;;;;12.91;100.00;-18252.22;4958205;29;20694;-35
2021/04/29 04:26:21;;;;;;;1999.90;999.90;;;;;;;12.82;100.00;-18249.81;4957941;29;20208;-34
2021/04/29 04:29:06;;;;;;;1999.90;999.90;;;;;;;12.94;100.00;-18253.03;4957842;29;20243;-34
2021/04/29 04:31:53;;;;;;;1999.90;999.90;;;;;;;12.76;100.00;-18248.34;4958429;29;20348;-35
2021/04/29 04:34:39;;;;;;;1999.90;999.90;;;;;;;12.79;100.00;-18249.03;4958255;29;20207;-36
2021/04/29 04:37:26;;;;;;;1999.90;999.90;;;;;;;12.80;100.00;-18249.41;4958220;29;20204;-36
2021/04/29 04:40:14;;;;;;;1999.90;999.90;;;;;;;12.85;100.00;-18250.63;4961148;29;20353;-33
2021/04/29 04:43:00;;;;;;;1999.90;999.90;;;;;;;12.95;100.00;-18253.28;4961863;29;20214;-35
2021/04/29 04:45:47;;;;;;;1999.90;999.90;;;;;;;12.88;100.00;-18251.41;4961849;29;20610;-38
2021/04/29 04:48:34;;;;;;;1999.90;999.90;;;;;;;12.80;100.00;-18249.41;4961675;29;20204;-38
2021/04/29 04:51:20;;;;;;;1999.90;999.90;;;;;;;12.74;100.00;-18247.81;4961607;29;20311;-34
2021/04/29 04:54:06;;;;;;;1999.90;999.90;;;;;;;12.56;100.00;-18243.16;4961486;29;20240;-34
2021/04/29 04:56:54;;;;;;;1999.90;999.90;;;;;;;12.49;100.00;-18241.28;4961864;29;20295;-37
2021/04/29 04:59:40;;;;;;;1999.90;999.90;;;;;;;12.73;100.00;-18247.69;4961267;29;20629;-33
2021/04/29 05:02:26;;;;;;;1999.90;999.90;;;;;;;12.28;100.00;-18235.66;4961711;29;20665;-36
2021/04/29 05:05:14;;;;;;;1999.90;999.90;;;;;;;12.36;100.00;-18237.81;4961007;29;20196;-34
2021/04/29 05:08:02;;;;;;;1999.90;999.90;;;;;;;12.51;100.00;-18241.81;4961046;29;20224;-36
2021/04/29 05:10:47;;;;;;;1999.90;999.90;;;;;;;12.33;100.00;-18237.16;4961588;29;20226;-32
2021/04/29 05:13:33;;;;;;;1999.90;999.90;;;;;;;12.19;100.00;-18233.28;4960662;29;20355;-33
2021/04/29 05:16:23;;;;;;;1999.90;999.90;;;;;;;12.13;100.00;-18231.66;4961034;29;20264;-35
2021/04/29 05:19:10;;;;;;;1999.90;999.90;;;;;;;12.49;100.00;-18241.28;4961313;29;20295;-33
2021/04/29 05:21:57;;;;;;;1999.90;999.90;;;;;;;12.29;100.00;-18235.94;4960872;29;20352;-36
2021/04/29 05:24:44;;;;;;;1999.90;999.90;;;;;;;12.24;100.00;-18234.75;4961025;29;20203;-33
2021/04/29 05:27:30;;;;;;;1999.90;999.90;;;;;;;12.11;100.00;-18231.13;4960193;29;20614;-33
2021/04/29 05:30:17;;;;;;;1999.90;999.90;;;;;;;12.06;100.00;-18229.94;4960286;29;20243;-34
2021/04/29 05:33:07;;;;;;;1999.90;999.90;;;;;;;12.10;100.00;-18231.00;4960399;29;20204;-32
2021/04/29 05:35:53;;;;;;;1999.90;999.90;;;;;;;12.00;100.00;-18228.47;4960554;29;20203;-38
2021/04/29 05:38:40;;;;;;;1999.90;999.90;;;;;;;12.24;100.00;-18234.75;4959983;29;20204;-35
2021/04/29 05:41:27;;;;;;;1999.90;999.90;;;;;;;12.46;100.00;-18240.34;4959573;29;20207;-38
2021/04/29 05:44:13;;;;;;;1999.90;999.90;;;;;;;12.37;100.00;-18238.06;4959814;29;20228;-32
2021/04/29 05:47:03;;;;;;;1999.90;999.90;;;;;;;12.33;100.00;-18237.16;4959576;29;20603;-35
2021/04/29 05:49:51;;;;;;;1999.90;999.90;;;;;;;12.42;100.00;-18239.41;4958698;28;20303;-35
2021/04/29 05:52:38;;;;;;;1999.90;999.90;;;;;;;12.55;100.00;-18242.88;4959398;29;20522;-38
2021/04/29 05:55:24;;;;;;;1999.90;999.90;;;;;;;12.87;100.00;-18251.16;4959795;29;20247;-33
2021/04/29 05:58:10;;;;;;;1999.90;999.90;;;;;;;12.63;100.00;-18245.00;4959984;29;20256;-34
2021/04/29 06:00:57;;;;;;;1999.90;999.90;;;;;;;12.73;100.00;-18247.69;4959922;29;20335;-36
2021/04/29 06:03:42;;;;;;;1999.90;999.90;;;;;;;12.92;100.00;-18252.63;4959886;29;20203;-34
2021/04/29 06:06:28;;;;;;;1999.90;999.90;;;;;;;13.16;100.00;-18258.78;4959382;29;20204;-40
2021/04/29 06:09:14;;;;;;;1999.90;999.90;;;;;;;13.03;100.00;-18255.56;4958768;29;20231;-35
2021/04/29 06:12:01;;;;;;;1999.90;999.90;;;;;;;12.70;100.00;-18246.88;4960167;29;20504;-38
2021/04/29 06:14:48;;;;;;;1999.90;999.90;;;;;;;13.06;100.00;-18256.22;4959152;29;20210;-37
2021/04/29 06:17:34;;;;;;;1999.90;999.90;;;;;;;13.88;100.00;-18277.84;4959515;29;20364;-38
2021/04/29 06:20:21;;;;;;;1999.90;999.90;;;;;;;13.43;100.00;-18266.09;4959670;29;20199;-37
2021/04/29 06:23:07;;;;;;;1999.90;999.90;;;;;;;13.28;100.00;-18262.09;4959535;29;20204;-39
2021/04/29 06:25:54;;;;;;;1999.90;999.90;;;;;;;13.53;100.00;-18268.63;4959908;29;20201;-36
2021/04/29 06:28:43;;;;;;;1999.90;999.90;;;;;;;13.51;100.00;-18267.97;4958948;29;20475;-36
2021/04/29 06:31:29;;;;;;;1999.90;999.90;;;;;;;13.41;100.00;-18265.44;4959330;29;20236;-37
2021/04/29 06:34:15;;;;;;;1999.90;999.90;;;;;;;13.39;100.00;-18265.03;4958558;29;20216;-37
2021/04/29 06:37:01;;;;;;;1999.90;999.90;;;;;;;13.51;100.00;-18268.09;4958708;29;20333;-37
2021/04/29 06:39:48;;;;;;;1999.90;999.90;;;;;;;13.68;100.00;-18272.50;4958857;29;20695;-35
2021/04/29 06:42:36;;;;;;;1999.90;999.90;;;;;;;14.20;100.00;-18286.22;4959432;29;20209;-36
2021/04/29 06:45:26;;;;;;;1999.90;999.90;;;;;;;14.03;100.00;-18281.69;4959310;29;20256;-38
2021/04/29 06:48:12;;;;;;;1999.90;999.90;;;;;;;14.33;100.00;-18289.56;4959542;29;20300;-37
2021/04/29 06:50:58;;;;;;;1999.90;999.90;;;;;;;14.00;100.00;-18281.03;4959372;29;20652;-36
2021/04/29 06:53:45;;;;;;;1999.90;999.90;;;;;;;13.98;100.00;-18280.38;4959083;29;20256;-37
2021/04/29 06:56:31;;;;;;;1999.90;999.90;;;;;;;14.26;100.00;-18287.69;4959355;29;20319;-38
2021/04/29 06:59:21;;;;;;;1999.90;999.90;;;;;;;14.01;100.00;-18281.31;4960211;29;20300;-37
2021/04/29 07:02:09;;;;;;;1999.90;999.90;;;;;;;14.52;100.00;-18294.50;4958640;28;20472;-36
2021/04/29 07:05:15;;;;;;;1999.90;999.90;;;;;;;14.75;100.00;-18300.75;4958910;29;20621;-35
2021/04/29 07:08:01;;;;;;;1999.90;999.90;;;;;;;14.26;100.00;-18287.69;4959043;29;20202;-40
2021/04/29 07:10:49;;;;;;;1999.90;999.90;;;;;;;13.91;100.00;-18278.63;4958795;29;20240;-37
2021/04/29 07:13:35;;;;;;;1999.90;999.90;;;;;;;14.27;100.00;-18288.09;4958949;29;20564;-34
2021/04/29 07:16:21;;;;;;;1999.90;999.90;;;;;;;13.95;100.00;-18279.72;4958801;29;20200;-38
2021/04/29 07:19:08;;;;;;;1999.90;999.90;;;;;;;13.46;100.00;-18266.78;4958756;29;20308;-36
2021/04/29 07:21:55;;;;;;;1999.90;999.90;;;;;;;13.80;100.00;-18275.84;4958978;29;20207;-39
2021/04/29 07:24:43;;;;;;;1999.90;999.90;;;;;;;15.43;100.00;-18318.59;4958746;29;20668;-38
2021/04/29 07:27:29;;;;;;;1999.90;999.90;;;;;;;15.66;97.05;-18324.47;4958499;29;20326;-37
2021/04/29 07:30:19;;;;;;;1999.90;999.90;;;;;;;16.17;93.28;-18338.06;4957951;29;20635;-37
2021/04/29 07:33:05;;;;;;;1999.90;999.90;;;;;;;15.18;95.44;-18311.97;4958799;29;20267;-36
2021/04/29 07:35:52;;;;;;;1999.90;999.90;;;;;;;17.39;81.77;-18369.97;4958299;29;20615;-37
2021/04/29 07:38:41;;;;;;;1999.90;999.90;;;;;;;16.73;81.02;-18352.69;4957813;29;20512;-37
2021/04/29 07:41:28;;;;;;;1999.90;999.90;;;;;;;17.61;79.62;-18375.53;4958140;29;20228;-40
2021/04/29 07:44:16;;;;;;;1999.90;999.90;;;;;;;17.88;73.82;-18382.72;4958621;29;20279;-36
2021/04/29 07:47:09;;;;;;;1999.90;999.90;;;;;;;17.33;76.42;-18368.25;4957991;29;20236;-37
2021/04/29 07:50:08;;;;;;;1999.90;999.90;;;;;;;15.86;80.72;-18329.78;4957697;29;20223;-35
2021/04/29 07:52:57;;;;;;;1999.90;999.90;;;;;;;16.16;80.02;-18337.78;4939163;29;20640;-35
2021/04/29 07:55:43;;;;;;;1999.90;999.90;;;;;;;15.06;83.65;-18308.75;4901064;29;20298;-34
2021/04/29 07:58:31;;;;;;;1999.90;999.90;;;;;;;15.74;83.69;-18326.59;4900777;29;20222;-31
2021/04/29 08:01:21;;;;;;;1999.90;999.90;;;;;;;16.66;74.83;-18350.81;4900285;29;20202;-37
2021/04/29 08:04:07;;;;;;;1999.90;999.90;;;;;;;17.21;71.93;-18365.19;4900976;29;20201;-35
2021/04/29 08:06:53;;;;;;;1999.90;999.90;;;;;;;17.90;69.96;-18383.38;4900862;29;20293;-35
2021/04/29 08:09:47;;;;;;;1999.90;999.90;;;;;;;18.18;66.87;-18390.56;4900174;29;20294;-33
2021/04/29 08:12:33;;;;;;;1999.90;999.90;;;;;;;18.35;65.20;-18394.94;4901459;29;20298;-35
2021/04/29 08:15:19;;;;;;;1999.90;999.90;;;;;;;18.75;63.95;-18405.44;4904310;29;20238;-37
2021/04/29 08:18:05;;;;;;;1999.90;999.90;;;;;;;18.47;65.36;-18398.13;4904663;29;20264;-35
2021/04/29 08:20:54;;;;;;;1999.90;999.90;;;;;;;18.01;65.86;-18386.03;4904494;29;20210;-37
2021/04/29 08:23:42;;;;;;;1999.90;999.90;;;;;;;18.62;63.59;-18402.13;4904116;29;20270;-38
2021/04/29 08:26:30;;;;;;;1999.90;999.90;;;;;;;16.37;71.08;-18343.25;4904286;29;20342;-36
2021/04/29 08:29:18;;;;;;;1999.90;999.90;;;;;;;16.19;69.57;-18338.56;4904051;29;20320;-34
2021/04/29 08:32:07;;;;;;;1999.90;999.90;;;;;;;17.66;66.72;-18376.88;4904083;29;20465;-36
2021/04/29 08:34:53;;;;;;;1999.90;999.90;;;;;;;17.59;67.17;-18375.16;4903217;29;20509;-38
2021/04/29 08:37:49;;;;;;;1999.90;999.90;;;;;;;18.06;63.40;-18387.50;4903990;29;20227;-39
2021/04/29 08:40:35;;;;;;;1999.90;999.90;;;;;;;19.36;60.51;-18421.50;4905059;29;20202;-38
2021/04/29 08:43:22;;;;;;;1999.90;999.90;;;;;;;18.57;62.01;-18400.91;4914851;29;20217;-37
2021/04/29 08:46:08;;;;;;;1999.90;999.90;;;;;;;19.07;58.09;-18413.78;4922169;29;20717;-35
2021/04/29 08:48:56;;;;;;;1999.90;999.90;;;;;;;18.54;61.80;-18400.13;4917378;29;20209;-35
2021/04/29 08:51:43;;;;;;;1999.90;999.90;;;;;;;17.75;62.89;-18379.41;4903929;29;20286;-34
2021/04/29 08:54:29;;;;;;;1999.90;999.90;;;;;;;17.28;65.98;-18367.03;4925396;29;20262;-37
2021/04/29 08:57:15;;;;;;;1999.90;999.90;;;;;;;16.52;67.24;-18347.09;4941652;29;20779;-35
2021/04/29 09:00:02;;;;;;;1999.90;999.90;;;;;;;16.61;67.20;-18349.47;4941854;29;20414;-34
2021/04/29 09:02:49;;;;;;;1999.90;999.90;;;;;;;16.97;63.69;-18358.81;4942333;29;20201;-38
2021/04/29 09:05:40;;;;;;;1999.90;999.90;;;;;;;18.32;63.38;-18394.16;4941762;29;20310;-40
2021/04/29 09:08:29;;;;;;;1999.90;999.90;;;;;;;18.49;60.29;-18398.66;4940760;29;20532;-39
2021/04/29 09:11:18;;;;;;;1999.90;999.90;;;;;;;18.56;57.82;-18400.53;4942942;29;20381;-36
2021/04/29 09:14:06;;;;;;;1999.90;999.90;;;;;;;17.86;58.58;-18382.19;4960385;29;20211;-38
2021/04/29 09:16:53;;;;;;;1999.90;999.90;;;;;;;16.92;58.75;-18357.47;4960386;29;20303;-38
2021/04/29 09:19:50;;;;;;;1999.90;999.90;;;;;;;16.10;64.72;-18336.06;4960750;29;20496;-36
2021/04/29 09:22:41;;;;;;;1999.90;999.90;;;;;;;16.53;63.49;-18347.34;4959719;29;20278;-38
2021/04/29 09:25:33;;;;;;;1999.90;999.90;;;;;;;16.33;66.29;-18342.03;4959634;28;20205;-37
2021/04/29 09:28:18;;;;;;;1999.90;999.90;;;;;;;17.39;61.88;-18369.97;4959969;29;20212;-35
2021/04/29 09:31:07;;;;;;;1999.90;999.90;;;;;;;17.27;61.92;-18366.78;4959921;29;20270;-36
2021/04/29 09:33:58;;;;;;;1999.90;999.90;;;;;;;16.53;64.92;-18347.34;4960587;29;20200;-37
2021/04/29 09:36:48;;;;;;;1999.90;999.90;;;;;;;16.02;68.44;-18334.06;4960258;29;20204;-37
2021/04/29 09:39:34;;;;;;;1999.90;999.90;;;;;;;15.79;70.56;-18327.94;4958200;29;20226;-38
2021/04/29 09:42:33;;;;;;;1999.90;999.90;;;;;;;15.39;71.89;-18317.53;4958681;29;20208;-39
2021/04/29 09:45:25;;;;;;;1999.90;999.90;;;;;;;16.24;70.46;-18339.66;4959301;29;20204;-34
2021/04/29 09:48:11;;;;;;;1999.90;999.90;;;;;;;15.56;71.36;-18321.94;4959901;29;20675;-37
2021/04/29 09:51:01;;;;;;;1999.90;999.90;;;;;;;15.16;72.41;-18311.41;4959125;29;20231;-37
2021/04/29 09:53:54;;;;;;;1999.90;999.90;;;;;;;15.89;69.51;-18330.59;4958495;29;20251;-39
2021/04/29 09:56:56;;;;;;;1999.90;999.90;;;;;;;15.83;70.39;-18329.00;4959555;29;20285;-37
2021/04/29 09:59:44;;;;;;;1999.90;999.90;;;;;;;16.16;71.11;-18337.78;4959198;29;20240;-39
2021/04/29 10:02:30;;;;;;;1999.90;999.90;;;;;;;17.68;62.77;-18377.41;4959907;29;20439;-35
2021/04/29 10:05:16;;;;;;;1999.90;999.90;;;;;;;16.79;62.79;-18354.16;4959501;29;20492;-38
2021/04/29 10:08:03;;;;;;;1999.90;999.90;;;;;;;16.09;66.12;-18335.91;4959630;29;20638;-37
2021/04/29 10:10:58;;;;;;;1999.90;999.90;;;;;;;15.23;69.70;-18313.16;4958753;29;20227;-36
2021/04/29 10:13:45;;;;;;;1999.90;999.90;;;;;;;15.14;71.02;-18310.88;4958946;29;20303;-36
2021/04/29 10:16:30;;;;;;;1999.90;999.90;;;;;;;15.01;73.05;-18307.56;4959448;29;20305;-34
2021/04/29 10:19:21;;;;;;;1999.90;999.90;;;;;;;15.12;74.81;-18310.34;4959826;29;20208;-36
2021/04/29 10:22:17;;;;;;;1999.90;999.90;;;;;;;14.95;73.16;-18305.81;4959610;29;20224;-37
2021/04/29 10:25:07;;;;;;;1999.90;999.90;;;;;;;14.80;74.51;-18302.09;4959167;29;20333;-37
2021/04/29 10:28:00;;;;;;;1999.90;999.90;;;;;;;15.37;78.72;-18316.88;4958811;29;20611;-34
2021/04/29 10:30:45;;;;;;;1999.90;999.90;;;;;;;16.65;71.64;-18350.56;4958982;29;20228;-35
2021/04/29 10:33:36;;;;;;;1999.90;999.90;;;;;;;17.11;70.13;-18362.53;4958750;29;20279;-37
2021/04/29 10:36:37;;;;;;;1999.90;999.90;;;;;;;18.45;64.52;-18397.59;4957924;28;20212;-37
2021/04/29 10:39:27;;;;;;;1999.90;999.90;;;;;;;18.72;60.54;-18404.78;4958608;29;20208;-34
2021/04/29 10:42:17;;;;;;;1999.90;999.90;;;;;;;15.90;68.90;-18330.88;4958555;29;20223;-38
2021/04/29 10:45:08;;;;;;;1999.90;999.90;;;;;;;17.14;64.31;-18363.47;4958710;29;20504;-36
2021/04/29 10:48:05;;;;;;;1999.90;999.90;;;;;;;18.31;58.68;-18394.00;4958645;29;20263;-35
2021/04/29 10:50:52;;;;;;;1999.90;999.90;;;;;;;18.40;57.29;-18396.28;4954239;29;20358;-36
2021/04/29 10:53:40;;;;;;;1999.90;999.90;;;;;;;18.68;55.75;-18403.72;4958992;29;20233;-40
2021/04/29 10:56:25;;;;;;;1999.90;999.90;;;;;;;17.59;57.27;-18375.16;4959143;29;20204;-35
2021/04/29 10:59:15;;;;;;;1999.90;999.90;;;;;;;18.65;54.68;-18402.78;4957964;29;20277;-35
2021/04/29 11:02:03;;;;;;;1999.90;999.90;;;;;;;19.18;54.72;-18416.72;4958433;29;20584;-35
2021/04/29 11:04:52;;;;;;;1999.90;999.90;;;;;;;17.38;56.96;-18369.69;4958386;29;20291;-36
2021/04/29 11:07:48;;;;;;;1999.90;999.90;;;;;;;17.78;56.04;-18380.06;4958135;29;20505;-33
2021/04/29 11:10:36;;;;;;;1999.90;999.90;;;;;;;17.43;55.75;-18370.91;4958008;29;20228;-38
2021/04/29 11:13:27;;;;;;;1999.90;999.90;;;;;;;16.33;60.22;-18342.16;4957930;29;20340;-38
2021/04/29 11:16:14;;;;;;;1999.90;999.90;;;;;;;17.12;58.93;-18362.78;4958616;29;20200;-37
2021/04/29 11:19:01;;;;;;;1999.90;999.90;;;;;;;17.98;53.91;-18385.38;4957835;29;20206;-38
2021/04/29 11:21:47;;;;;;;1999.90;999.90;;;;;;;18.62;53.09;-18402.13;4958342;29;20200;-35
2021/04/29 11:24:39;;;;;;;1999.90;999.90;;;;;;;19.34;53.47;-18420.81;4958314;29;20204;-37
2021/04/29 11:27:31;;;;;;;1999.90;999.90;;;;;;;16.09;61.23;-18335.78;4958181;29;20549;-37
2021/04/29 11:30:18;;;;;;;1999.90;999.90;;;;;;;15.17;68.84;-18311.69;4958436;29;20243;-36
2021/04/29 11:33:13;;;;;;;1999.90;999.90;;;;;;;15.41;69.91;-18317.94;4957997;29;20203;-33
2021/04/29 11:36:00;;;;;;;1999.90;999.90;;;;;;;15.48;70.23;-18319.94;4958005;29;20504;-36
2021/04/29 11:38:51;;;;;;;1999.90;999.90;;;;;;;16.92;66.20;-18357.59;4958272;29;20341;-35
2021/04/29 11:41:40;;;;;;;1999.90;999.90;;;;;;;16.81;66.40;-18354.81;4958159;29;20308;-38
2021/04/29 11:44:28;;;;;;;1999.90;999.90;;;;;;;17.22;64.15;-18365.44;4957656;29;20208;-35
2021/04/29 11:47:15;;;;;;;1999.90;999.90;;;;;;;17.54;61.91;-18373.94;4957634;29;20365;-36
2021/04/29 11:50:02;;;;;;;1999.90;999.90;;;;;;;18.21;56.79;-18391.34;4958013;29;20224;-38
2021/04/29 11:52:47;;;;;;;1999.90;999.90;;;;;;;18.91;51.21;-18409.81;4957723;29;20268;-37
2021/04/29 11:55:36;;;;;;;1999.90;999.90;;;;;;;18.84;52.58;-18407.81;4957605;29;20227;-38
2021/04/29 11:58:27;;;;;;;1999.90;999.90;;;;;;;16.90;52.83;-18357.06;4957161;29;20227;-33
2021/04/29 12:01:16;;;;;;;1999.90;999.90;;;;;;;16.81;56.25;-18354.81;4957191;29;20200;-32
2021/04/29 12:04:14;;;;;;;1999.90;999.90;;;;;;;18.14;53.18;-18389.63;4957860;29;20343;-38
2021/04/29 12:07:03;;;;;;;1999.90;999.90;;;;;;;16.63;56.75;-18350.03;4957840;29;20611;-36
2021/04/29 12:09:52;;;;;;;1999.90;999.90;;;;;;;16.86;59.13;-18356.13;4957548;29;20372;-37
2021/04/29 12:12:51;;;;;;;1999.90;999.90;;;;;;;17.82;56.41;-18381.13;4957547;29;20332;-33
2021/04/29 12:15:37;;;;;;;1999.90;999.90;;;;;;;17.55;56.53;-18374.09;4958019;29;20199;-34